sensor_id;sensor_type;location;lat;lon;timestamp;temperature;humidity
17266;DHT22;8749;47.076;15.412;2022-07-17T00:01:29;23.10;96.20
17266;DHT22;8749;47.076;15.412;2022-07-17T00:03:56;23.10;96.20
17266;DHT22;8749;47.076;15.412;2022-07-17T00:06:23;23.10;96.30
17266;DHT22;8749;47.076;15.412;2022-07-17T00:08:50;23.00;96.40
17266;DHT22;8749;47.076;15.412;2022-07-17T00:11:17;23.00;96.40
17266;DHT22;8749;47.076;15.412;2022-07-17T00:13:44;23.00;96.50
17266;DHT22;8749;47.076;15.412;2022-07-17T00:16:12;22.90;96.50
17266;DHT22;8749;47.076;15.412;2022-07-17T00:18:39;22.90;96.60
17266;DHT22;8749;47.076;15.412;2022-07-17T00:21:06;22.90;96.60
17266;DHT22;8749;47.076;15.412;2022-07-17T00:23:33;22.80;96.70
17266;DHT22;8749;47.076;15.412;2022-07-17T00:26:00;22.80;96.70
17266;DHT22;8749;47.076;15.412;2022-07-17T00:28:27;22.80;96.70
17266;DHT22;8749;47.076;15.412;2022-07-17T00:30:54;22.70;96.60
17266;DHT22;8749;47.076;15.412;2022-07-17T00:33:22;22.70;96.70
17266;DHT22;8749;47.076;15.412;2022-07-17T00:35:49;22.70;96.70
17266;DHT22;8749;47.076;15.412;2022-07-17T00:38:16;22.70;96.80
17266;DHT22;8749;47.076;15.412;2022-07-17T00:40:43;22.70;96.90
17266;DHT22;8749;47.076;15.412;2022-07-17T00:43:10;22.70;96.90
17266;DHT22;8749;47.076;15.412;2022-07-17T00:48:07;22.60;96.90
17266;DHT22;8749;47.076;15.412;2022-07-17T00:50:39;22.60;97.30
17266;DHT22;8749;47.076;15.412;2022-07-17T00:53:07;22.50;97.30
17266;DHT22;8749;47.076;15.412;2022-07-17T00:55:34;22.50;97.30
17266;DHT22;8749;47.076;15.412;2022-07-17T00:58:03;22.40;97.40
17266;DHT22;8749;47.076;15.412;2022-07-17T01:00:30;22.40;97.50
17266;DHT22;8749;47.076;15.412;2022-07-17T01:02:57;22.40;97.50
17266;DHT22;8749;47.076;15.412;2022-07-17T01:05:25;22.40;97.60
17266;DHT22;8749;47.076;15.412;2022-07-17T01:07:53;22.30;97.40
17266;DHT22;8749;47.076;15.412;2022-07-17T01:10:20;22.30;97.40
17266;DHT22;8749;47.076;15.412;2022-07-17T01:12:48;22.20;97.30
17266;DHT22;8749;47.076;15.412;2022-07-17T01:15:15;22.20;97.40
17266;DHT22;8749;47.076;15.412;2022-07-17T01:17:43;22.20;97.40
17266;DHT22;8749;47.076;15.412;2022-07-17T01:20:10;22.20;97.90
17266;DHT22;8749;47.076;15.412;2022-07-17T01:22:43;22.10;97.60
17266;DHT22;8749;47.076;15.412;2022-07-17T01:25:12;22.10;97.60
17266;DHT22;8749;47.076;15.412;2022-07-17T01:27:39;22.10;97.70
17266;DHT22;8749;47.076;15.412;2022-07-17T01:30:08;22.00;97.70
17266;DHT22;8749;47.076;15.412;2022-07-17T01:32:36;22.00;97.80
17266;DHT22;8749;47.076;15.412;2022-07-17T01:35:05;22.00;97.90
17266;DHT22;8749;47.076;15.412;2022-07-17T01:37:32;21.90;98.00
17266;DHT22;8749;47.076;15.412;2022-07-17T01:40:01;21.90;98.20
17266;DHT22;8749;47.076;15.412;2022-07-17T01:42:28;21.80;98.10
17266;DHT22;8749;47.076;15.412;2022-07-17T01:44:55;21.80;98.00
17266;DHT22;8749;47.076;15.412;2022-07-17T01:47:23;21.80;98.00
17266;DHT22;8749;47.076;15.412;2022-07-17T01:49:52;21.70;98.00
17266;DHT22;8749;47.076;15.412;2022-07-17T01:52:19;21.70;98.00
17266;DHT22;8749;47.076;15.412;2022-07-17T01:54:46;21.70;98.00
17266;DHT22;8749;47.076;15.412;2022-07-17T01:57:15;21.70;98.00
17266;DHT22;8749;47.076;15.412;2022-07-17T01:59:42;21.60;98.00
17266;DHT22;8749;47.076;15.412;2022-07-17T02:02:10;21.50;97.90
17266;DHT22;8749;47.076;15.412;2022-07-17T02:04:38;21.40;98.30
17266;DHT22;8749;47.076;15.412;2022-07-17T02:07:07;21.30;98.10
17266;DHT22;8749;47.076;15.412;2022-07-17T02:09:35;21.20;98.00
17266;DHT22;8749;47.076;15.412;2022-07-17T02:12:02;21.20;98.20
17266;DHT22;8749;47.076;15.412;2022-07-17T02:14:31;21.20;98.50
17266;DHT22;8749;47.076;15.412;2022-07-17T02:16:59;21.20;99.10
17266;DHT22;8749;47.076;15.412;2022-07-17T02:19:26;21.20;99.70
17266;DHT22;8749;47.076;15.412;2022-07-17T02:21:53;21.20;99.90
17266;DHT22;8749;47.076;15.412;2022-07-17T02:24:19;21.20;99.90
17266;DHT22;8749;47.076;15.412;2022-07-17T02:26:46;21.20;99.90
17266;DHT22;8749;47.076;15.412;2022-07-17T02:29:13;21.30;99.90
17266;DHT22;8749;47.076;15.412;2022-07-17T02:31:42;21.30;99.90
17266;DHT22;8749;47.076;15.412;2022-07-17T02:34:08;21.40;99.90
17266;DHT22;8749;47.076;15.412;2022-07-17T02:36:35;21.40;99.90
17266;DHT22;8749;47.076;15.412;2022-07-17T02:39:02;21.40;99.40
17266;DHT22;8749;47.076;15.412;2022-07-17T02:41:29;21.30;99.20
17266;DHT22;8749;47.076;15.412;2022-07-17T02:43:56;21.20;99.20
17266;DHT22;8749;47.076;15.412;2022-07-17T02:46:23;21.20;99.20
17266;DHT22;8749;47.076;15.412;2022-07-17T02:48:52;21.10;99.30
17266;DHT22;8749;47.076;15.412;2022-07-17T02:51:18;21.10;99.30
17266;DHT22;8749;47.076;15.412;2022-07-17T02:53:45;21.10;99.40
17266;DHT22;8749;47.076;15.412;2022-07-17T02:56:12;21.00;99.40
17266;DHT22;8749;47.076;15.412;2022-07-17T02:58:39;21.00;99.50
17266;DHT22;8749;47.076;15.412;2022-07-17T03:01:06;20.90;99.60
17266;DHT22;8749;47.076;15.412;2022-07-17T03:03:33;20.80;99.80
17266;DHT22;8749;47.076;15.412;2022-07-17T03:06:01;20.80;99.90
17266;DHT22;8749;47.076;15.412;2022-07-17T03:08:28;20.70;99.90
17266;DHT22;8749;47.076;15.412;2022-07-17T03:10:55;20.70;99.90
17266;DHT22;8749;47.076;15.412;2022-07-17T03:13:22;20.60;99.90
17266;DHT22;8749;47.076;15.412;2022-07-17T03:15:49;20.70;99.90
17266;DHT22;8749;47.076;15.412;2022-07-17T03:18:15;20.70;99.90
17266;DHT22;8749;47.076;15.412;2022-07-17T03:20:43;20.70;99.90
17266;DHT22;8749;47.076;15.412;2022-07-17T03:23:11;20.70;99.90
17266;DHT22;8749;47.076;15.412;2022-07-17T03:25:38;20.70;99.90
17266;DHT22;8749;47.076;15.412;2022-07-17T03:28:05;20.70;99.90
17266;DHT22;8749;47.076;15.412;2022-07-17T03:30:32;20.70;99.90
17266;DHT22;8749;47.076;15.412;2022-07-17T03:32:59;20.70;99.90
17266;DHT22;8749;47.076;15.412;2022-07-17T03:35:26;20.70;99.90
17266;DHT22;8749;47.076;15.412;2022-07-17T03:37:53;20.80;99.90
17266;DHT22;8749;47.076;15.412;2022-07-17T03:40:21;20.80;99.70
17266;DHT22;8749;47.076;15.412;2022-07-17T03:42:48;20.90;99.60
17266;DHT22;8749;47.076;15.412;2022-07-17T03:45:14;20.90;99.50
17266;DHT22;8749;47.076;15.412;2022-07-17T03:47:41;20.90;99.40
17266;DHT22;8749;47.076;15.412;2022-07-17T03:50:08;21.00;99.30
17266;DHT22;8749;47.076;15.412;2022-07-17T03:52:35;21.10;99.30
17266;DHT22;8749;47.076;15.412;2022-07-17T03:55:02;21.10;99.30
17266;DHT22;8749;47.076;15.412;2022-07-17T03:57:31;21.10;99.20
17266;DHT22;8749;47.076;15.412;2022-07-17T03:59:58;21.10;99.30
17266;DHT22;8749;47.076;15.412;2022-07-17T04:02:24;21.10;99.40
17266;DHT22;8749;47.076;15.412;2022-07-17T04:04:51;21.10;99.50
17266;DHT22;8749;47.076;15.412;2022-07-17T04:07:18;21.10;99.50
17266;DHT22;8749;47.076;15.412;2022-07-17T04:09:55;21.20;99.50
17266;DHT22;8749;47.076;15.412;2022-07-17T04:12:23;21.20;99.60
17266;DHT22;8749;47.076;15.412;2022-07-17T04:14:51;21.20;99.70
17266;DHT22;8749;47.076;15.412;2022-07-17T04:17:18;21.30;99.80
17266;DHT22;8749;47.076;15.412;2022-07-17T04:19:45;21.30;99.80
17266;DHT22;8749;47.076;15.412;2022-07-17T04:22:12;21.40;99.90
17266;DHT22;8749;47.076;15.412;2022-07-17T04:24:39;21.40;99.90
17266;DHT22;8749;47.076;15.412;2022-07-17T04:27:06;21.40;99.90
17266;DHT22;8749;47.076;15.412;2022-07-17T04:29:34;21.50;99.90
17266;DHT22;8749;47.076;15.412;2022-07-17T04:32:03;21.50;99.90
17266;DHT22;8749;47.076;15.412;2022-07-17T04:34:30;21.60;99.90
17266;DHT22;8749;47.076;15.412;2022-07-17T04:36:58;21.70;99.90
17266;DHT22;8749;47.076;15.412;2022-07-17T04:39:25;21.70;99.90
17266;DHT22;8749;47.076;15.412;2022-07-17T04:41:52;21.80;99.90
17266;DHT22;8749;47.076;15.412;2022-07-17T04:44:19;21.90;99.90
17266;DHT22;8749;47.076;15.412;2022-07-17T04:46:46;22.00;99.90
17266;DHT22;8749;47.076;15.412;2022-07-17T04:49:15;22.10;99.90
17266;DHT22;8749;47.076;15.412;2022-07-17T04:51:42;22.20;99.80
17266;DHT22;8749;47.076;15.412;2022-07-17T04:54:09;22.30;99.70
17266;DHT22;8749;47.076;15.412;2022-07-17T04:56:36;22.30;99.50
17266;DHT22;8749;47.076;15.412;2022-07-17T04:59:02;22.40;99.30
17266;DHT22;8749;47.076;15.412;2022-07-17T05:01:30;22.40;99.20
17266;DHT22;8749;47.076;15.412;2022-07-17T05:03:57;22.50;99.10
17266;DHT22;8749;47.076;15.412;2022-07-17T05:06:25;22.50;99.00
17266;DHT22;8749;47.076;15.412;2022-07-17T05:08:52;22.50;98.60
17266;DHT22;8749;47.076;15.412;2022-07-17T05:11:19;22.50;98.50
17266;DHT22;8749;47.076;15.412;2022-07-17T05:13:46;22.50;98.50
17266;DHT22;8749;47.076;15.412;2022-07-17T05:16:13;22.50;98.40
17266;DHT22;8749;47.076;15.412;2022-07-17T05:18:42;22.40;98.50
17266;DHT22;8749;47.076;15.412;2022-07-17T05:21:09;22.40;98.60
17266;DHT22;8749;47.076;15.412;2022-07-17T05:23:37;22.40;98.30
17266;DHT22;8749;47.076;15.412;2022-07-17T05:26:05;22.40;98.40
17266;DHT22;8749;47.076;15.412;2022-07-17T05:28:32;22.40;98.20
17266;DHT22;8749;47.076;15.412;2022-07-17T05:30:58;22.30;97.30
17266;DHT22;8749;47.076;15.412;2022-07-17T05:33:26;22.10;97.80
17266;DHT22;8749;47.076;15.412;2022-07-17T05:35:53;22.10;97.90
17266;DHT22;8749;47.076;15.412;2022-07-17T05:38:19;22.20;98.50
17266;DHT22;8749;47.076;15.412;2022-07-17T05:40:48;22.30;98.30
17266;DHT22;8749;47.076;15.412;2022-07-17T05:43:15;22.20;98.40
17266;DHT22;8749;47.076;15.412;2022-07-17T05:45:42;22.30;98.00
17266;DHT22;8749;47.076;15.412;2022-07-17T05:48:08;22.30;98.00
17266;DHT22;8749;47.076;15.412;2022-07-17T05:50:36;22.30;97.30
17266;DHT22;8749;47.076;15.412;2022-07-17T05:53:03;22.30;96.70
17266;DHT22;8749;47.076;15.412;2022-07-17T05:55:30;22.20;96.60
17266;DHT22;8749;47.076;15.412;2022-07-17T05:57:58;22.10;96.70
17266;DHT22;8749;47.076;15.412;2022-07-17T06:00:25;22.20;96.60
17266;DHT22;8749;47.076;15.412;2022-07-17T06:02:52;22.30;96.30
17266;DHT22;8749;47.076;15.412;2022-07-17T06:05:19;22.40;96.20
17266;DHT22;8749;47.076;15.412;2022-07-17T06:07:46;22.40;95.70
17266;DHT22;8749;47.076;15.412;2022-07-17T06:10:13;22.30;95.50
17266;DHT22;8749;47.076;15.412;2022-07-17T06:12:40;22.30;94.80
17266;DHT22;8749;47.076;15.412;2022-07-17T06:15:09;22.40;94.80
17266;DHT22;8749;47.076;15.412;2022-07-17T06:17:36;22.40;94.90
17266;DHT22;8749;47.076;15.412;2022-07-17T06:20:04;22.50;94.80
17266;DHT22;8749;47.076;15.412;2022-07-17T06:22:32;22.50;94.30
17266;DHT22;8749;47.076;15.412;2022-07-17T06:24:59;22.50;94.00
17266;DHT22;8749;47.076;15.412;2022-07-17T06:27:26;22.50;93.30
17266;DHT22;8749;47.076;15.412;2022-07-17T06:29:53;22.60;93.60
17266;DHT22;8749;47.076;15.412;2022-07-17T06:32:21;22.70;93.40
17266;DHT22;8749;47.076;15.412;2022-07-17T06:34:48;22.60;93.10
17266;DHT22;8749;47.076;15.412;2022-07-17T06:37:15;22.60;93.20
17266;DHT22;8749;47.076;15.412;2022-07-17T06:39:42;22.70;93.00
17266;DHT22;8749;47.076;15.412;2022-07-17T06:42:08;22.70;92.60
17266;DHT22;8749;47.076;15.412;2022-07-17T06:44:36;22.80;92.50
17266;DHT22;8749;47.076;15.412;2022-07-17T06:47:03;22.80;92.40
17266;DHT22;8749;47.076;15.412;2022-07-17T06:49:31;22.90;92.40
17266;DHT22;8749;47.076;15.412;2022-07-17T06:51:58;23.00;92.20
17266;DHT22;8749;47.076;15.412;2022-07-17T06:54:25;23.00;92.00
17266;DHT22;8749;47.076;15.412;2022-07-17T06:56:53;23.00;92.20
17266;DHT22;8749;47.076;15.412;2022-07-17T06:59:20;23.00;92.10
17266;DHT22;8749;47.076;15.412;2022-07-17T07:01:47;23.10;92.00
17266;DHT22;8749;47.076;15.412;2022-07-17T07:04:14;23.10;92.10
17266;DHT22;8749;47.076;15.412;2022-07-17T07:06:42;23.10;92.00
17266;DHT22;8749;47.076;15.412;2022-07-17T07:09:10;23.20;92.10
17266;DHT22;8749;47.076;15.412;2022-07-17T07:11:38;23.10;92.20
17266;DHT22;8749;47.076;15.412;2022-07-17T07:14:05;23.20;92.20
17266;DHT22;8749;47.076;15.412;2022-07-17T07:16:32;23.20;92.10
17266;DHT22;8749;47.076;15.412;2022-07-17T07:18:59;23.20;91.60
17266;DHT22;8749;47.076;15.412;2022-07-17T07:21:26;23.00;92.10
17266;DHT22;8749;47.076;15.412;2022-07-17T07:23:55;23.10;92.50
17266;DHT22;8749;47.076;15.412;2022-07-17T07:26:22;23.10;92.00
17266;DHT22;8749;47.076;15.412;2022-07-17T07:28:50;23.20;92.30
17266;DHT22;8749;47.076;15.412;2022-07-17T07:31:17;23.30;92.10
17266;DHT22;8749;47.076;15.412;2022-07-17T07:33:44;23.40;92.10
17266;DHT22;8749;47.076;15.412;2022-07-17T07:36:11;23.50;91.40
17266;DHT22;8749;47.076;15.412;2022-07-17T07:38:38;23.40;91.60
17266;DHT22;8749;47.076;15.412;2022-07-17T07:41:07;23.40;91.80
17266;DHT22;8749;47.076;15.412;2022-07-17T07:43:34;23.50;91.90
17266;DHT22;8749;47.076;15.412;2022-07-17T07:46:02;23.60;91.60
17266;DHT22;8749;47.076;15.412;2022-07-17T07:48:29;23.60;91.30
17266;DHT22;8749;47.076;15.412;2022-07-17T07:50:57;23.70;91.70
17266;DHT22;8749;47.076;15.412;2022-07-17T07:53:24;23.80;91.60
17266;DHT22;8749;47.076;15.412;2022-07-17T07:55:51;23.70;91.40
17266;DHT22;8749;47.076;15.412;2022-07-17T07:58:19;23.70;91.60
17266;DHT22;8749;47.076;15.412;2022-07-17T08:00:46;23.80;91.80
17266;DHT22;8749;47.076;15.412;2022-07-17T08:03:14;23.90;91.70
17266;DHT22;8749;47.076;15.412;2022-07-17T08:05:41;23.90;91.60
17266;DHT22;8749;47.076;15.412;2022-07-17T08:08:08;24.10;91.80
17266;DHT22;8749;47.076;15.412;2022-07-17T08:10:35;24.10;91.60
17266;DHT22;8749;47.076;15.412;2022-07-17T08:13:02;24.10;91.80
17266;DHT22;8749;47.076;15.412;2022-07-17T08:15:30;24.20;91.20
17266;DHT22;8749;47.076;15.412;2022-07-17T08:17:57;24.10;91.10
17266;DHT22;8749;47.076;15.412;2022-07-17T08:20:25;24.00;91.50
17266;DHT22;8749;47.076;15.412;2022-07-17T08:22:52;24.10;91.40
17266;DHT22;8749;47.076;15.412;2022-07-17T08:25:19;24.20;91.60
17266;DHT22;8749;47.076;15.412;2022-07-17T08:27:46;24.20;90.90
17266;DHT22;8749;47.076;15.412;2022-07-17T08:30:14;24.10;91.10
17266;DHT22;8749;47.076;15.412;2022-07-17T08:32:43;24.20;90.70
17266;DHT22;8749;47.076;15.412;2022-07-17T08:35:10;24.00;91.00
17266;DHT22;8749;47.076;15.412;2022-07-17T08:37:46;24.10;91.30
17266;DHT22;8749;47.076;15.412;2022-07-17T08:40:21;24.10;91.00
17266;DHT22;8749;47.076;15.412;2022-07-17T08:42:49;24.20;91.00
17266;DHT22;8749;47.076;15.412;2022-07-17T08:45:17;24.10;90.80
17266;DHT22;8749;47.076;15.412;2022-07-17T08:47:45;24.10;91.00
17266;DHT22;8749;47.076;15.412;2022-07-17T08:50:13;24.00;90.80
17266;DHT22;8749;47.076;15.412;2022-07-17T08:52:41;24.00;91.10
17266;DHT22;8749;47.076;15.412;2022-07-17T08:55:10;24.10;91.00
17266;DHT22;8749;47.076;15.412;2022-07-17T08:57:39;24.10;90.80
17266;DHT22;8749;47.076;15.412;2022-07-17T09:00:07;24.20;90.90
17266;DHT22;8749;47.076;15.412;2022-07-17T09:02:36;24.10;90.70
17266;DHT22;8749;47.076;15.412;2022-07-17T09:05:06;24.10;91.00
17266;DHT22;8749;47.076;15.412;2022-07-17T09:07:33;23.90;91.20
17266;DHT22;8749;47.076;15.412;2022-07-17T09:10:00;23.90;91.20
17266;DHT22;8749;47.076;15.412;2022-07-17T09:12:28;24.10;91.40
17266;DHT22;8749;47.076;15.412;2022-07-17T09:14:56;24.20;91.30
17266;DHT22;8749;47.076;15.412;2022-07-17T09:17:23;24.30;91.40
17266;DHT22;8749;47.076;15.412;2022-07-17T09:19:52;24.30;91.10
17266;DHT22;8749;47.076;15.412;2022-07-17T09:22:22;24.10;91.10
17266;DHT22;8749;47.076;15.412;2022-07-17T09:24:52;24.00;91.00
17266;DHT22;8749;47.076;15.412;2022-07-17T09:27:30;24.10;91.40
17266;DHT22;8749;47.076;15.412;2022-07-17T09:30:00;24.30;91.30
17266;DHT22;8749;47.076;15.412;2022-07-17T09:32:30;24.40;91.40
17266;DHT22;8749;47.076;15.412;2022-07-17T09:34:59;24.60;91.30
17266;DHT22;8749;47.076;15.412;2022-07-17T09:37:29;24.60;90.90
17266;DHT22;8749;47.076;15.412;2022-07-17T09:39:57;24.70;90.90
17266;DHT22;8749;47.076;15.412;2022-07-17T09:42:27;24.70;90.40
17266;DHT22;8749;47.076;15.412;2022-07-17T09:45:02;24.70;90.00
17266;DHT22;8749;47.076;15.412;2022-07-17T09:47:33;24.80;90.60
17266;DHT22;8749;47.076;15.412;2022-07-17T09:50:02;24.90;90.40
17266;DHT22;8749;47.076;15.412;2022-07-17T09:52:33;24.90;89.90
17266;DHT22;8749;47.076;15.412;2022-07-17T09:55:02;24.80;89.20
17266;DHT22;8749;47.076;15.412;2022-07-17T09:57:32;24.80;90.00
17266;DHT22;8749;47.076;15.412;2022-07-17T10:00:01;24.80;89.70
17266;DHT22;8749;47.076;15.412;2022-07-17T10:02:29;24.80;89.50
17266;DHT22;8749;47.076;15.412;2022-07-17T10:04:57;24.90;89.60
17266;DHT22;8749;47.076;15.412;2022-07-17T10:07:24;25.00;88.80
17266;DHT22;8749;47.076;15.412;2022-07-17T10:09:53;25.10;88.40
17266;DHT22;8749;47.076;15.412;2022-07-17T10:12:21;25.20;88.90
17266;DHT22;8749;47.076;15.412;2022-07-17T10:14:49;25.20;89.30
17266;DHT22;8749;47.076;15.412;2022-07-17T10:17:20;25.20;87.70
17266;DHT22;8749;47.076;15.412;2022-07-17T10:19:50;25.20;87.60
17266;DHT22;8749;47.076;15.412;2022-07-17T10:22:17;25.20;88.00
17266;DHT22;8749;47.076;15.412;2022-07-17T10:24:47;25.20;87.80
17266;DHT22;8749;47.076;15.412;2022-07-17T10:27:20;25.20;87.70
17266;DHT22;8749;47.076;15.412;2022-07-17T10:29:59;25.20;88.10
17266;DHT22;8749;47.076;15.412;2022-07-17T10:32:26;25.30;87.10
17266;DHT22;8749;47.076;15.412;2022-07-17T10:34:58;25.20;86.40
17266;DHT22;8749;47.076;15.412;2022-07-17T10:37:27;25.10;86.80
17266;DHT22;8749;47.076;15.412;2022-07-17T10:39:59;25.10;86.50
17266;DHT22;8749;47.076;15.412;2022-07-17T10:42:51;24.90;86.90
17266;DHT22;8749;47.076;15.412;2022-07-17T10:45:19;24.90;87.60
17266;DHT22;8749;47.076;15.412;2022-07-17T10:47:52;25.00;87.60
17266;DHT22;8749;47.076;15.412;2022-07-17T10:50:22;25.10;87.50
17266;DHT22;8749;47.076;15.412;2022-07-17T10:53:07;25.20;88.00
17266;DHT22;8749;47.076;15.412;2022-07-17T10:55:36;25.30;87.90
17266;DHT22;8749;47.076;15.412;2022-07-17T10:58:21;25.40;87.80
17266;DHT22;8749;47.076;15.412;2022-07-17T11:01:08;25.60;87.70
17266;DHT22;8749;47.076;15.412;2022-07-17T11:03:38;25.70;87.00
17266;DHT22;8749;47.076;15.412;2022-07-17T11:06:12;25.80;87.30
17266;DHT22;8749;47.076;15.412;2022-07-17T11:08:44;25.80;85.60
17266;DHT22;8749;47.076;15.412;2022-07-17T11:11:12;25.80;86.20
17266;DHT22;8749;47.076;15.412;2022-07-17T11:13:40;25.90;86.50
17266;DHT22;8749;47.076;15.412;2022-07-17T11:16:07;26.00;86.80
17266;DHT22;8749;47.076;15.412;2022-07-17T11:18:34;26.10;86.40
17266;DHT22;8749;47.076;15.412;2022-07-17T11:21:04;26.20;86.30
17266;DHT22;8749;47.076;15.412;2022-07-17T11:23:32;26.30;86.70
17266;DHT22;8749;47.076;15.412;2022-07-17T11:26:01;26.40;86.00
17266;DHT22;8749;47.076;15.412;2022-07-17T11:28:31;26.50;86.30
17266;DHT22;8749;47.076;15.412;2022-07-17T11:31:00;26.60;86.00
17266;DHT22;8749;47.076;15.412;2022-07-17T11:33:27;26.80;86.10
17266;DHT22;8749;47.076;15.412;2022-07-17T11:35:54;26.90;84.30
17266;DHT22;8749;47.076;15.412;2022-07-17T11:38:26;27.00;84.30
17266;DHT22;8749;47.076;15.412;2022-07-17T11:40:54;27.00;84.00
17266;DHT22;8749;47.076;15.412;2022-07-17T11:43:21;27.00;83.80
17266;DHT22;8749;47.076;15.412;2022-07-17T11:45:49;27.20;84.10
17266;DHT22;8749;47.076;15.412;2022-07-17T11:48:17;27.30;84.70
17266;DHT22;8749;47.076;15.412;2022-07-17T11:50:55;27.20;82.90
17266;DHT22;8749;47.076;15.412;2022-07-17T11:53:32;27.20;83.40
17266;DHT22;8749;47.076;15.412;2022-07-17T11:55:59;27.30;82.90
17266;DHT22;8749;47.076;15.412;2022-07-17T11:58:27;27.30;81.90
17266;DHT22;8749;47.076;15.412;2022-07-17T12:01:02;27.30;82.50
17266;DHT22;8749;47.076;15.412;2022-07-17T12:03:31;27.40;83.00
17266;DHT22;8749;47.076;15.412;2022-07-17T12:05:58;27.50;82.80
17266;DHT22;8749;47.076;15.412;2022-07-17T12:08:25;27.70;82.40
17266;DHT22;8749;47.076;15.412;2022-07-17T12:11:09;27.90;82.30
17266;DHT22;8749;47.076;15.412;2022-07-17T12:13:42;28.00;82.60
17266;DHT22;8749;47.076;15.412;2022-07-17T12:16:20;28.20;81.60
17266;DHT22;8749;47.076;15.412;2022-07-17T12:18:57;28.30;81.00
17266;DHT22;8749;47.076;15.412;2022-07-17T12:21:25;28.50;81.30
17266;DHT22;8749;47.076;15.412;2022-07-17T12:23:58;28.60;81.10
17266;DHT22;8749;47.076;15.412;2022-07-17T12:26:25;28.70;80.10
17266;DHT22;8749;47.076;15.412;2022-07-17T12:28:52;28.80;79.90
17266;DHT22;8749;47.076;15.412;2022-07-17T12:31:19;29.00;80.40
17266;DHT22;8749;47.076;15.412;2022-07-17T12:33:47;29.20;80.30
17266;DHT22;8749;47.076;15.412;2022-07-17T12:36:16;29.40;79.60
17266;DHT22;8749;47.076;15.412;2022-07-17T12:38:43;29.60;78.90
17266;DHT22;8749;47.076;15.412;2022-07-17T12:41:11;29.80;79.00
17266;DHT22;8749;47.076;15.412;2022-07-17T12:43:38;30.00;78.20
17266;DHT22;8749;47.076;15.412;2022-07-17T12:46:05;30.10;77.60
17266;DHT22;8749;47.076;15.412;2022-07-17T12:48:32;30.10;77.20
17266;DHT22;8749;47.076;15.412;2022-07-17T12:51:00;30.20;76.90
17266;DHT22;8749;47.076;15.412;2022-07-17T12:53:29;30.30;76.70
17266;DHT22;8749;47.076;15.412;2022-07-17T12:55:56;30.40;76.70
17266;DHT22;8749;47.076;15.412;2022-07-17T12:58:23;30.50;76.30
17266;DHT22;8749;47.076;15.412;2022-07-17T13:00:50;30.80;75.40
17266;DHT22;8749;47.076;15.412;2022-07-17T13:03:17;30.90;75.30
17266;DHT22;8749;47.076;15.412;2022-07-17T13:05:44;31.00;75.50
17266;DHT22;8749;47.076;15.412;2022-07-17T13:08:11;31.10;74.60
17266;DHT22;8749;47.076;15.412;2022-07-17T13:10:39;31.10;74.60
17266;DHT22;8749;47.076;15.412;2022-07-17T13:13:06;31.20;74.40
17266;DHT22;8749;47.076;15.412;2022-07-17T13:15:33;31.30;73.90
17266;DHT22;8749;47.076;15.412;2022-07-17T13:18:00;31.30;73.60
17266;DHT22;8749;47.076;15.412;2022-07-17T13:20:27;31.20;73.60
17266;DHT22;8749;47.076;15.412;2022-07-17T13:22:54;31.40;73.70
17266;DHT22;8749;47.076;15.412;2022-07-17T13:25:21;31.50;74.10
17266;DHT22;8749;47.076;15.412;2022-07-17T13:27:50;31.70;74.00
17266;DHT22;8749;47.076;15.412;2022-07-17T13:30:17;31.80;72.80
17266;DHT22;8749;47.076;15.412;2022-07-17T13:32:44;31.80;72.80
17266;DHT22;8749;47.076;15.412;2022-07-17T13:35:11;31.80;72.70
17266;DHT22;8749;47.076;15.412;2022-07-17T13:37:39;31.90;72.90
17266;DHT22;8749;47.076;15.412;2022-07-17T13:40:07;32.20;72.80
17266;DHT22;8749;47.076;15.412;2022-07-17T13:42:34;32.30;71.90
17266;DHT22;8749;47.076;15.412;2022-07-17T13:45:03;32.60;71.30
17266;DHT22;8749;47.076;15.412;2022-07-17T13:47:30;32.80;71.20
17266;DHT22;8749;47.076;15.412;2022-07-17T13:49:57;32.90;70.00
17266;DHT22;8749;47.076;15.412;2022-07-17T13:52:24;33.00;70.30
17266;DHT22;8749;47.076;15.412;2022-07-17T13:54:51;33.30;71.10
17266;DHT22;8749;47.076;15.412;2022-07-17T13:57:18;33.60;70.50
17266;DHT22;8749;47.076;15.412;2022-07-17T13:59:45;33.90;70.60
17266;DHT22;8749;47.076;15.412;2022-07-17T14:02:13;34.20;69.50
17266;DHT22;8749;47.076;15.412;2022-07-17T14:04:40;34.30;67.70
17266;DHT22;8749;47.076;15.412;2022-07-17T14:07:07;34.20;67.90
17266;DHT22;8749;47.076;15.412;2022-07-17T14:09:34;34.30;67.20
17266;DHT22;8749;47.076;15.412;2022-07-17T14:12:01;34.50;67.50
17266;DHT22;8749;47.076;15.412;2022-07-17T14:14:28;34.50;66.30
17266;DHT22;8749;47.076;15.412;2022-07-17T14:16:55;34.50;65.40
17266;DHT22;8749;47.076;15.412;2022-07-17T14:19:23;34.60;65.50
17266;DHT22;8749;47.076;15.412;2022-07-17T14:21:50;34.80;64.80
17266;DHT22;8749;47.076;15.412;2022-07-17T14:24:17;34.70;64.40
17266;DHT22;8749;47.076;15.412;2022-07-17T14:26:44;34.60;64.40
17266;DHT22;8749;47.076;15.412;2022-07-17T14:29:14;34.70;64.00
17266;DHT22;8749;47.076;15.412;2022-07-17T14:31:41;34.60;63.70
17266;DHT22;8749;47.076;15.412;2022-07-17T14:34:09;34.50;63.30
17266;DHT22;8749;47.076;15.412;2022-07-17T14:36:38;34.80;63.80
17266;DHT22;8749;47.076;15.412;2022-07-17T14:39:05;34.90;62.80
17266;DHT22;8749;47.076;15.412;2022-07-17T14:41:32;34.90;63.10
17266;DHT22;8749;47.076;15.412;2022-07-17T14:46:26;35.30;61.70
17266;DHT22;8749;47.076;15.412;2022-07-17T14:48:53;35.60;62.40
17266;DHT22;8749;47.076;15.412;2022-07-17T14:51:20;35.80;61.60
17266;DHT22;8749;47.076;15.412;2022-07-17T14:53:48;35.90;60.40
17266;DHT22;8749;47.076;15.412;2022-07-17T14:56:15;36.10;60.60
17266;DHT22;8749;47.076;15.412;2022-07-17T14:58:42;36.40;60.00
17266;DHT22;8749;47.076;15.412;2022-07-17T15:01:09;36.70;59.80
17266;DHT22;8749;47.076;15.412;2022-07-17T15:03:36;36.80;59.20
17266;DHT22;8749;47.076;15.412;2022-07-17T15:06:03;37.10;59.90
17266;DHT22;8749;47.076;15.412;2022-07-17T15:08:30;37.40;58.90
17266;DHT22;8749;47.076;15.412;2022-07-17T15:10:58;37.60;70.50
17266;DHT22;8749;47.076;15.412;2022-07-17T15:13:25;37.60;73.60
17266;DHT22;8749;47.076;15.412;2022-07-17T15:15:52;37.80;74.90
17266;DHT22;8749;47.076;15.412;2022-07-17T15:18:19;38.00;77.80
17266;DHT22;8749;47.076;15.412;2022-07-17T15:20:46;38.00;86.20
17266;DHT22;8749;47.076;15.412;2022-07-17T15:25:40;37.90;56.90
17266;DHT22;8749;47.076;15.412;2022-07-17T15:28:08;38.20;57.60
17266;DHT22;8749;47.076;15.412;2022-07-17T15:30:35;38.20;56.70
17266;DHT22;8749;47.076;15.412;2022-07-17T15:33:02;38.20;56.70
17266;DHT22;8749;47.076;15.412;2022-07-17T15:35:29;38.40;55.90
17266;DHT22;8749;47.076;15.412;2022-07-17T15:37:56;38.40;55.60
17266;DHT22;8749;47.076;15.412;2022-07-17T15:40:24;38.70;55.90
17266;DHT22;8749;47.076;15.412;2022-07-17T15:42:51;39.00;56.80